Oriibu — JD2579 — position and weather

sailwx.info

Track history (hours):
 
Tides and Currents Weather Stations Pressure Air Temp Water Temp Dewpoint Dewpoint Depression Visibility Wind Speed Wind Dir Waves Ship Positions

Oriibu

Last reported at 2015-Aug-05 07:31 UTC. Time now 2015-Aug-05 08:27 UTC.
Position N 33°37' E 130°24'.

Length 75 m; draft 4.2 m.

MMSI: 431000426.

Date/timePositionNaut miles runAvg speedWind from/ knotsBaromVisibWave heightAir tempDewpointWater temp
2015-Aug-05 07:31N 33°37' E 130°24'0 0.0
2015-Aug-05 06:28N 33°37' E 130°24'0 0.0
2015-Aug-05 05:31N 33°37' E 130°24'0 0.0
2015-Aug-05 04:31N 33°37' E 130°24'0 0.0
2015-Aug-05 03:31N 33°37' E 130°24'0 0.0
2015-Aug-05 02:31N 33°37' E 130°24'0 0.0
2015-Aug-05 01:31N 33°37' E 130°24'0 0.0
2015-Aug-05 00:31N 33°37' E 130°24'0 0.0
2015-Aug-04 23:31N 33°37' E 130°24'0 0.0
2015-Aug-04 22:31N 33°37' E 130°24'0 0.0
2015-Aug-04 21:31N 33°37' E 130°24'0 0.0
2015-Aug-04 20:28N 33°37' E 130°24'0 0.0
2015-Aug-04 19:31N 33°37' E 130°24'0 0.0
2015-Aug-04 18:31N 33°37' E 130°24'0 0.0
2015-Aug-04 17:31N 33°37' E 130°24'0 0.0
2015-Aug-04 16:31N 33°37' E 130°24'0 0.0
2015-Aug-04 15:31N 33°37' E 130°24'0 0.0
2015-Aug-04 14:31N 33°37' E 130°24'0 0.0
2015-Aug-04 13:34N 33°37' E 130°24'0 0.0
2015-Aug-04 12:31N 33°37' E 130°24'0 0.0
2015-Aug-04 11:31N 33°37' E 130°24'0 0.0
2015-Aug-04 10:31N 33°37' E 130°24'9 1.4
2015-Aug-04 04:22N 33°42' E 130°16'1011.4
2015-Aug-04 03:31N 33°50' E 130°23'  
2015-Aug-01 18:33N 34°11' E 135°02'237 9.5
2015-Jul-31 17:29N 34°51' E 139°47'1211.4
2015-Jul-31 16:28N 34°54' E 140°00'1112.0
2015-Jul-31 15:33N 35°01' E 140°11'2311.6
2015-Jul-31 13:33N 35°16' E 140°32'3411.3
2015-Jul-31 10:33N 35°45' E 140°54'1211.9
2015-Jul-31 09:33N 35°55' E 140°46'4 4.1
2015-Jul-31 08:33N 35°53' E 140°41'5 0.5
2015-Jul-30 22:16N 35°59' E 140°42'0 0.2
2015-Jul-30 20:24N 35°59' E 140°42'0 0.0
2015-Jul-30 19:12N 35°59' E 140°42'0 0.0
2015-Jul-30 16:30N 35°59' E 140°42'0 0.0
2015-Jul-30 15:30N 35°59' E 140°42'0 0.0
2015-Jul-30 14:12N 35°59' E 140°42'0 0.0
2015-Jul-30 13:27N 35°59' E 140°42'0 0.0
2015-Jul-30 12:18N 35°59' E 140°42'0 0.1
2015-Jul-30 11:34N 35°59' E 140°42'1211.8
2015-Jul-30 10:33N 36°10' E 140°45'1313.0
2015-Jul-30 09:31N 36°24' E 140°48'1313.2
2015-Jul-30 08:33N 36°36' E 140°50'8 0.5
2015-Jul-29 14:24N 36°29' E 140°54'10111.0
2015-Jul-29 05:15N 34°57' E 140°03'257 6.1
2015-Jul-27 11:18N 34°35' E 134°52'1012.7
2015-Jul-27 10:33N 34°36' E 135°03'1110.6
2015-Jul-27 09:33N 34°40' E 135°15'2 1.5
2015-Jul-27 08:08N 34°42' E 135°16'0 0.0
2015-Jul-27 07:32N 34°42' E 135°16'0 0.0
2015-Jul-27 06:32N 34°42' E 135°16'0 0.0
2015-Jul-27 05:32N 34°42' E 135°16'0 0.0
2015-Jul-27 04:32N 34°42' E 135°16'0 0.0
2015-Jul-27 03:32N 34°42' E 135°16'0 0.0
2015-Jul-27 02:20N 34°42' E 135°16'0 0.0
2015-Jul-27 01:32N 34°42' E 135°16'0 0.0
2015-Jul-27 00:32N 34°42' E 135°16'0 0.0
2015-Jul-26 23:26N 34°42' E 135°16'1 0.8
2015-Jul-26 22:31N 34°42' E 135°15'0 0.0
2015-Jul-26 21:31N 34°42' E 135°15'0 0.0
2015-Jul-26 20:25N 34°42' E 135°15'0 0.1
2015-Jul-26 19:31N 34°42' E 135°15'0 0.0
2015-Jul-26 18:31N 34°42' E 135°15'0 0.0
2015-Jul-26 17:25N 34°42' E 135°15'0 0.0
2015-Jul-26 16:25N 34°42' E 135°15'0 0.0
2015-Jul-26 15:31N 34°42' E 135°15'0 0.0
2015-Jul-26 14:31N 34°42' E 135°15'0 0.0
2015-Jul-26 13:31N 34°42' E 135°15'0 0.0
2015-Jul-26 12:31N 34°42' E 135°15'0 0.1
2015-Jul-26 11:31N 34°42' E 135°15'0 0.0
2015-Jul-26 10:07N 34°42' E 135°15'0 0.0
2015-Jul-26 09:31N 34°42' E 135°15'0 0.0
2015-Jul-26 08:19N 34°42' E 135°15'0 0.0
2015-Jul-26 07:31N 34°42' E 135°15'  
Track history (hours):
 
Tides and Currents Weather Stations Pressure Air Temp Water Temp Dewpoint Dewpoint Depression Visibility Wind Speed Wind Dir Waves Ship Positions

Oriibu

Last reported at 2015-Aug-05 07:31 UTC. Time now 2015-Aug-05 08:27 UTC.
Position N 33°37' E 130°24'.

Length 75 m; draft 4.2 m.

MMSI: 431000426.

Date/timePositionNaut miles runAvg speedWind from/ knotsBaromVisibWave heightAir tempDewpointWater temp
2015-Aug-05 07:31N 33°37' E 130°24'0 0.0
2015-Aug-05 06:28N 33°37' E 130°24'0 0.0
2015-Aug-05 05:31N 33°37' E 130°24'0 0.0
2015-Aug-05 04:31N 33°37' E 130°24'0 0.0
2015-Aug-05 03:31N 33°37' E 130°24'0 0.0
2015-Aug-05 02:31N 33°37' E 130°24'0 0.0
2015-Aug-05 01:31N 33°37' E 130°24'0 0.0
2015-Aug-05 00:31N 33°37' E 130°24'0 0.0
2015-Aug-04 23:31N 33°37' E 130°24'0 0.0
2015-Aug-04 22:31N 33°37' E 130°24'0 0.0
2015-Aug-04 21:31N 33°37' E 130°24'0 0.0
2015-Aug-04 20:28N 33°37' E 130°24'0 0.0
2015-Aug-04 19:31N 33°37' E 130°24'0 0.0
2015-Aug-04 18:31N 33°37' E 130°24'0 0.0
2015-Aug-04 17:31N 33°37' E 130°24'0 0.0
2015-Aug-04 16:31N 33°37' E 130°24'0 0.0
2015-Aug-04 15:31N 33°37' E 130°24'0 0.0
2015-Aug-04 14:31N 33°37' E 130°24'0 0.0
2015-Aug-04 13:34N 33°37' E 130°24'0 0.0
2015-Aug-04 12:31N 33°37' E 130°24'0 0.0
2015-Aug-04 11:31N 33°37' E 130°24'0 0.0
2015-Aug-04 10:31N 33°37' E 130°24'9 1.4
2015-Aug-04 04:22N 33°42' E 130°16'1011.4
2015-Aug-04 03:31N 33°50' E 130°23'  
2015-Aug-01 18:33N 34°11' E 135°02'237 9.5
2015-Jul-31 17:29N 34°51' E 139°47'1211.4
2015-Jul-31 16:28N 34°54' E 140°00'1112.0
2015-Jul-31 15:33N 35°01' E 140°11'2311.6
2015-Jul-31 13:33N 35°16' E 140°32'3411.3
2015-Jul-31 10:33N 35°45' E 140°54'1211.9
2015-Jul-31 09:33N 35°55' E 140°46'4 4.1
2015-Jul-31 08:33N 35°53' E 140°41'5 0.5
2015-Jul-30 22:16N 35°59' E 140°42'0 0.2
2015-Jul-30 20:24N 35°59' E 140°42'0 0.0
2015-Jul-30 19:12N 35°59' E 140°42'0 0.0
2015-Jul-30 16:30N 35°59' E 140°42'0 0.0
2015-Jul-30 15:30N 35°59' E 140°42'0 0.0
2015-Jul-30 14:12N 35°59' E 140°42'0 0.0
2015-Jul-30 13:27N 35°59' E 140°42'0 0.0
2015-Jul-30 12:18N 35°59' E 140°42'0 0.1
2015-Jul-30 11:34N 35°59' E 140°42'1211.8
2015-Jul-30 10:33N 36°10' E 140°45'1313.0
2015-Jul-30 09:31N 36°24' E 140°48'1313.2
2015-Jul-30 08:33N 36°36' E 140°50'8 0.5
2015-Jul-29 14:24N 36°29' E 140°54'10111.0
2015-Jul-29 05:15N 34°57' E 140°03'257 6.1
2015-Jul-27 11:18N 34°35' E 134°52'1012.7
2015-Jul-27 10:33N 34°36' E 135°03'1110.6
2015-Jul-27 09:33N 34°40' E 135°15'2 1.5
2015-Jul-27 08:08N 34°42' E 135°16'0 0.0
2015-Jul-27 07:32N 34°42' E 135°16'0 0.0
2015-Jul-27 06:32N 34°42' E 135°16'0 0.0
2015-Jul-27 05:32N 34°42' E 135°16'0 0.0
2015-Jul-27 04:32N 34°42' E 135°16'0 0.0
2015-Jul-27 03:32N 34°42' E 135°16'0 0.0
2015-Jul-27 02:20N 34°42' E 135°16'0 0.0
2015-Jul-27 01:32N 34°42' E 135°16'0 0.0
2015-Jul-27 00:32N 34°42' E 135°16'0 0.0
2015-Jul-26 23:26N 34°42' E 135°16'1 0.8
2015-Jul-26 22:31N 34°42' E 135°15'0 0.0
2015-Jul-26 21:31N 34°42' E 135°15'0 0.0
2015-Jul-26 20:25N 34°42' E 135°15'0 0.1
2015-Jul-26 19:31N 34°42' E 135°15'0 0.0
2015-Jul-26 18:31N 34°42' E 135°15'0 0.0
2015-Jul-26 17:25N 34°42' E 135°15'0 0.0
2015-Jul-26 16:25N 34°42' E 135°15'0 0.0
2015-Jul-26 15:31N 34°42' E 135°15'0 0.0
2015-Jul-26 14:31N 34°42' E 135°15'0 0.0
2015-Jul-26 13:31N 34°42' E 135°15'0 0.0
2015-Jul-26 12:31N 34°42' E 135°15'0 0.1
2015-Jul-26 11:31N 34°42' E 135°15'0 0.0
2015-Jul-26 10:07N 34°42' E 135°15'0 0.0
2015-Jul-26 09:31N 34°42' E 135°15'0 0.0
2015-Jul-26 08:19N 34°42' E 135°15'0 0.0
2015-Jul-26 07:31N 34°42' E 135°15'  

Dump ship's entire track history